Time;durP1;ratioP1;P1;durP2;ratioP2;P2;SDS_P1;SDS_P2;PMS_P1;PMS_P2;Temp;Humidity;BMP_temperature;BMP_pressure;BME280_temperature;BME280_humidity;BME280_pressure;Samples;Min_cycle;Max_cycle;Signal;HPM_P1;HPM_P2
2021/08/21 00:00:26;;;;;;;40.70;10.20;;;;;;;-145.18;100.00;60484.78;5077110;28;20036;-72
2021/08/21 00:02:52;;;;;;;50.63;11.17;;;;;;;-145.18;100.00;60484.78;5076954;28;20039;-72
2021/08/21 00:05:17;;;;;;;41.50;10.53;;;;;;;-145.18;100.00;60484.78;5078707;28;20028;-72
2021/08/21 00:07:43;;;;;;;44.23;9.90;;;;;;;-145.18;100.00;60484.78;5076571;28;20044;-72
2021/08/21 00:10:09;;;;;;;50.93;10.13;;;;;;;-145.18;100.00;60484.78;5074387;28;20032;-72
2021/08/21 00:12:35;;;;;;;39.87;9.63;;;;;;;-145.18;100.00;60484.78;5078625;28;20024;-72
2021/08/21 00:15:02;;;;;;;48.83;10.20;;;;;;;-145.18;100.00;60484.78;5077970;28;20028;-72
2021/08/21 00:17:27;;;;;;;53.40;11.00;;;;;;;-145.18;100.00;60484.78;5077620;28;20312;-72
2021/08/21 00:19:53;;;;;;;81.87;12.27;;;;;;;-145.18;100.00;60484.78;5073705;28;20420;-72
2021/08/21 00:22:18;;;;;;;80.27;11.93;;;;;;;-145.18;100.00;60484.78;5075281;28;20127;-72
2021/08/21 00:24:44;;;;;;;142.97;13.97;;;;;;;-145.18;100.00;60484.78;5072386;28;20397;-72
2021/08/21 00:27:10;;;;;;;124.43;13.57;;;;;;;-145.18;100.00;60484.78;5075967;28;20136;-72
2021/08/21 00:29:36;;;;;;;59.47;12.17;;;;;;;-145.18;100.00;60484.78;5075269;28;20253;-72
2021/08/21 00:32:01;;;;;;;88.43;13.87;;;;;;;-145.18;100.00;60484.78;5078011;28;20024;-72
2021/08/21 00:34:27;;;;;;;72.57;13.27;;;;;;;-145.18;100.00;60484.78;5082319;28;20035;-72
2021/08/21 00:36:52;;;;;;;95.97;13.63;;;;;;;-145.18;100.00;60484.78;5078455;28;20035;-72
2021/08/21 00:39:18;;;;;;;131.43;15.23;;;;;;;-145.18;100.00;60484.78;5079099;28;20062;-71
2021/08/21 00:41:44;;;;;;;164.07;15.03;;;;;;;-145.18;100.00;60484.78;5080508;28;20028;-72
2021/08/21 00:44:11;;;;;;;92.50;13.60;;;;;;;-145.18;100.00;60484.78;5080596;28;20127;-72
2021/08/21 00:47:16;;;;;;;135.83;14.87;;;;;;;-145.18;100.00;60484.78;5081454;28;20495;-72
2021/08/21 00:49:44;;;;;;;132.83;15.80;;;;;;;-145.18;100.00;60484.78;5071595;28;20040;-72
2021/08/21 00:52:12;;;;;;;123.63;13.87;;;;;;;-145.18;100.00;60484.78;5077593;28;20361;-72
2021/08/21 00:54:39;;;;;;;110.60;13.07;;;;;;;-145.18;100.00;60484.78;5081703;28;20036;-72
2021/08/21 00:57:05;;;;;;;88.20;13.50;;;;;;;-145.18;100.00;60484.78;5081418;28;20266;-71
2021/08/21 00:59:33;;;;;;;106.10;14.37;;;;;;;-145.18;100.00;60484.78;5081234;28;20050;-71
2021/08/21 01:01:59;;;;;;;105.37;13.97;;;;;;;-145.18;100.00;60484.78;5080572;28;20032;-71
2021/08/21 01:04:25;;;;;;;90.30;14.43;;;;;;;-145.18;100.00;60484.78;5074846;28;20389;-72
2021/08/21 01:06:51;;;;;;;118.20;15.00;;;;;;;-145.18;100.00;60484.78;5078487;28;20162;-72
2021/08/21 01:09:16;;;;;;;192.67;16.20;;;;;;;-145.18;100.00;60484.78;5080312;28;20109;-72
2021/08/21 01:11:41;;;;;;;110.07;13.97;;;;;;;-145.18;100.00;60484.78;5079829;28;20571;-72
2021/08/21 01:14:07;;;;;;;150.57;14.87;;;;;;;-145.18;100.00;60484.78;5079800;28;20035;-71
2021/08/21 01:16:33;;;;;;;144.47;14.70;;;;;;;-145.18;100.00;60484.78;5079780;28;20712;-71
2021/08/21 01:18:59;;;;;;;91.50;14.57;;;;;;;-145.18;100.00;60484.78;5077319;28;20403;-71
2021/08/21 01:21:24;;;;;;;126.80;15.90;;;;;;;-145.18;100.00;60484.78;5077850;28;20043;-72
2021/08/21 01:23:51;;;;;;;195.70;17.03;;;;;;;-145.18;100.00;60484.78;5079781;28;20254;-72
2021/08/21 01:26:17;;;;;;;117.17;14.90;;;;;;;-145.18;100.00;60484.78;5079887;28;20388;-72
2021/08/21 01:28:42;;;;;;;94.57;15.73;;;;;;;-145.18;100.00;60484.78;5080646;28;20034;-72
2021/08/21 01:31:08;;;;;;;103.87;16.10;;;;;;;-145.18;100.00;60484.78;5077996;28;20343;-71
2021/08/21 01:33:35;;;;;;;124.57;16.47;;;;;;;-145.18;100.00;60484.78;5071235;28;20028;-71
2021/08/21 01:36:01;;;;;;;99.40;16.43;;;;;;;-145.18;100.00;60484.78;5072646;28;20280;-71
2021/08/21 01:38:27;;;;;;;91.20;15.70;;;;;;;-145.18;100.00;60484.78;5080082;28;20518;-71
2021/08/21 01:40:53;;;;;;;103.47;16.93;;;;;;;-145.18;100.00;60484.78;5069666;28;20024;-71
2021/08/21 01:43:20;;;;;;;85.53;15.73;;;;;;;-145.18;100.00;60484.78;5078747;28;20063;-71
2021/08/21 01:45:45;;;;;;;88.83;16.40;;;;;;;-145.18;100.00;60484.78;5070899;28;20269;-71
2021/08/21 01:48:14;;;;;;;89.23;15.73;;;;;;;-145.18;100.00;60484.78;5078571;28;20031;-71
2021/08/21 01:50:39;;;;;;;83.37;15.80;;;;;;;-145.18;100.00;60484.78;5079692;28;20051;-71
2021/08/21 01:53:10;;;;;;;95.87;16.50;;;;;;;-145.18;100.00;60484.78;5077494;28;20056;-71
2021/08/21 01:55:36;;;;;;;90.10;16.67;;;;;;;-145.18;100.00;60484.78;5079254;28;20063;-71
2021/08/21 01:58:02;;;;;;;77.63;15.50;;;;;;;-145.18;100.00;60484.78;5080480;28;20056;-71
2021/08/21 02:00:28;;;;;;;122.17;16.20;;;;;;;-145.18;100.00;60484.78;5079541;28;20085;-70
2021/08/21 02:02:54;;;;;;;73.43;14.17;;;;;;;-145.18;100.00;60484.78;5079215;28;20291;-70
2021/08/21 02:05:20;;;;;;;88.03;15.30;;;;;;;-145.18;100.00;60484.78;5075935;28;20125;-71
2021/08/21 02:07:46;;;;;;;89.43;16.17;;;;;;;-145.18;100.00;60484.78;5072789;28;20151;-71
2021/08/21 02:10:11;;;;;;;84.37;16.33;;;;;;;-145.18;100.00;60484.78;5069874;28;20024;-71
2021/08/21 02:12:37;;;;;;;75.80;15.17;;;;;;;-145.18;100.00;60484.78;5080594;28;20028;-71
2021/08/21 02:15:20;;;;;;;77.67;15.67;;;;;;;-145.18;100.00;60484.78;5079084;28;20404;-71
2021/08/21 02:17:46;;;;;;;65.87;15.63;;;;;;;-145.18;100.00;60484.78;5072974;28;20626;-71
2021/08/21 02:20:12;;;;;;;71.43;15.20;;;;;;;-145.18;100.00;60484.78;5075337;28;20110;-71
2021/08/21 02:22:47;;;;;;;61.37;15.00;;;;;;;-145.18;100.00;60484.78;5079717;28;20028;-71
2021/08/21 02:25:14;;;;;;;70.73;15.80;;;;;;;-145.18;100.00;60484.78;5077298;28;20063;-71
2021/08/21 02:27:55;;;;;;;71.90;14.93;;;;;;;-145.18;100.00;60484.78;5079651;28;20040;-71
2021/08/21 02:30:21;;;;;;;74.80;14.93;;;;;;;-145.18;100.00;60484.78;5078837;28;20276;-71
2021/08/21 02:32:46;;;;;;;72.23;14.50;;;;;;;-145.18;100.00;60484.78;5080660;28;20234;-71
2021/08/21 02:35:15;;;;;;;72.87;13.73;;;;;;;-145.18;100.00;60484.78;5074396;28;20437;-71
2021/08/21 02:37:41;;;;;;;62.87;13.87;;;;;;;-145.18;100.00;60484.78;5074980;28;20035;-71
2021/08/21 02:40:07;;;;;;;74.93;14.30;;;;;;;-145.18;100.00;60484.78;5076205;28;20544;-71
2021/08/21 02:42:33;;;;;;;67.37;13.20;;;;;;;-145.18;100.00;60484.78;5074673;28;20500;-71
2021/08/21 02:44:58;;;;;;;78.60;13.77;;;;;;;-145.18;100.00;60484.78;5074967;28;20070;-71
2021/08/21 02:47:24;;;;;;;81.27;14.47;;;;;;;-145.18;100.00;60484.78;5077616;28;20361;-71
2021/08/21 02:49:49;;;;;;;81.17;15.00;;;;;;;-145.18;100.00;60484.78;5075067;28;20081;-71
2021/08/21 02:52:15;;;;;;;73.20;14.57;;;;;;;-145.18;100.00;60484.78;5078029;28;20032;-71
2021/08/21 02:54:40;;;;;;;76.00;14.83;;;;;;;-145.18;100.00;60484.78;5077664;28;20532;-71
2021/08/21 02:57:06;;;;;;;80.63;14.87;;;;;;;-145.18;100.00;60484.78;5078240;28;20066;-71
2021/08/21 02:59:31;;;;;;;97.67;15.43;;;;;;;-145.18;100.00;60484.78;5076578;28;20240;-71
2021/08/21 03:01:57;;;;;;;87.87;14.43;;;;;;;-145.18;100.00;60484.78;5079486;28;20116;-70
2021/08/21 03:04:22;;;;;;;104.37;17.20;;;;;;;-145.18;100.00;60484.78;5078148;28;20028;-70
2021/08/21 03:06:48;;;;;;;98.97;15.67;;;;;;;-145.18;100.00;60484.78;5076394;28;20184;-71
2021/08/21 03:09:13;;;;;;;94.63;15.83;;;;;;;-145.18;100.00;60484.78;5070350;28;20137;-70
2021/08/21 03:11:39;;;;;;;102.70;16.13;;;;;;;-145.18;100.00;60484.78;5074102;28;20055;-70
2021/08/21 03:14:04;;;;;;;93.60;15.73;;;;;;;-145.18;100.00;60484.78;5079050;28;20520;-70
2021/08/21 03:16:30;;;;;;;96.03;14.23;;;;;;;-145.18;100.00;60484.78;5079394;28;20035;-70
2021/08/21 03:18:55;;;;;;;80.63;13.70;;;;;;;-145.18;100.00;60484.78;5077516;28;20298;-70
2021/08/21 03:21:21;;;;;;;94.83;14.77;;;;;;;-145.18;100.00;60484.78;5076428;28;20054;-71
2021/08/21 03:23:47;;;;;;;88.20;15.00;;;;;;;-145.18;100.00;60484.78;5075636;28;20020;-71
2021/08/21 03:26:12;;;;;;;88.23;15.93;;;;;;;-145.18;100.00;60484.78;5078645;28;20020;-71
2021/08/21 03:28:38;;;;;;;86.17;15.33;;;;;;;-145.18;100.00;60484.78;5079026;28;20019;-71
2021/08/21 03:31:04;;;;;;;79.30;14.40;;;;;;;-145.18;100.00;60484.78;5077108;28;20419;-71
2021/08/21 03:33:29;;;;;;;81.10;14.77;;;;;;;-145.18;100.00;60484.78;5077828;28;21995;-71
2021/08/21 03:35:55;;;;;;;82.70;14.13;;;;;;;-145.18;100.00;60484.78;5078055;28;20020;-71
2021/08/21 03:38:20;;;;;;;69.57;13.70;;;;;;;-145.18;100.00;60484.78;5078190;28;20031;-71
2021/08/21 03:40:46;;;;;;;71.53;13.57;;;;;;;-145.18;100.00;60484.78;5074853;28;20054;-71
2021/08/21 03:43:11;;;;;;;79.43;14.23;;;;;;;-145.18;100.00;60484.78;5074076;28;20485;-71
2021/08/21 03:45:40;;;;;;;72.77;14.50;;;;;;;-145.18;100.00;60484.78;5077308;28;20023;-70
2021/08/21 03:48:06;;;;;;;79.33;14.53;;;;;;;-145.18;100.00;60484.78;5075075;28;21058;-70
2021/08/21 03:50:32;;;;;;;80.27;15.50;;;;;;;-145.18;100.00;60484.78;5073096;28;20066;-70
2021/08/21 03:52:57;;;;;;;68.83;14.90;;;;;;;-145.18;100.00;60484.78;5078044;28;20504;-70
2021/08/21 03:55:22;;;;;;;70.97;14.80;;;;;;;-145.18;100.00;60484.78;5076527;28;20028;-70
2021/08/21 03:57:48;;;;;;;71.73;13.93;;;;;;;-145.18;100.00;60484.78;5078244;28;20023;-70
2021/08/21 04:00:15;;;;;;;49.73;12.23;;;;;;;-145.18;100.00;60484.78;5077804;28;20098;-71
2021/08/21 04:02:40;;;;;;;53.90;11.87;;;;;;;-145.18;100.00;60484.78;5078198;28;20044;-71
2021/08/21 04:05:06;;;;;;;45.53;11.47;;;;;;;-145.18;100.00;60484.78;5075376;28;20408;-71
2021/08/21 04:07:32;;;;;;;47.97;12.27;;;;;;;-145.18;100.00;60484.78;5076719;28;20439;-71
2021/08/21 04:09:57;;;;;;;63.87;14.63;;;;;;;-145.18;100.00;60484.78;5074433;28;20054;-71
2021/08/21 04:12:23;;;;;;;58.40;13.40;;;;;;;-145.18;100.00;60484.78;5078486;28;20412;-71
2021/08/21 04:14:48;;;;;;;56.23;13.43;;;;;;;-145.18;100.00;60484.78;5076352;28;20286;-71
2021/08/21 04:17:14;;;;;;;61.70;13.57;;;;;;;-145.18;100.00;60484.78;5079040;28;20569;-71
2021/08/21 04:19:39;;;;;;;74.20;14.77;;;;;;;-145.18;100.00;60484.78;5075849;28;20191;-71
2021/08/21 04:22:05;;;;;;;67.90;14.47;;;;;;;-145.18;100.00;60484.78;5078853;28;20044;-71
2021/08/21 04:24:30;;;;;;;60.97;13.97;;;;;;;-145.18;100.00;60484.78;5071446;28;20295;-70
2021/08/21 04:26:56;;;;;;;66.30;13.73;;;;;;;-145.18;100.00;60484.78;5077163;28;20054;-71
2021/08/21 04:29:22;;;;;;;60.47;14.47;;;;;;;-145.18;100.00;60484.78;5076437;28;20047;-71
2021/08/21 04:31:47;;;;;;;57.97;13.73;;;;;;;-145.18;100.00;60484.78;5078651;28;20016;-70
2021/08/21 04:34:13;;;;;;;65.20;14.07;;;;;;;-145.18;100.00;60484.78;5073992;28;20174;-71
2021/08/21 04:36:38;;;;;;;61.13;13.30;;;;;;;-145.18;100.00;60484.78;5077056;28;20082;-70
2021/08/21 04:39:04;;;;;;;62.97;15.10;;;;;;;-145.18;100.00;60484.78;5076783;28;20067;-70
2021/08/21 04:41:29;;;;;;;62.03;14.37;;;;;;;-145.18;100.00;60484.78;5077720;28;20557;-70
2021/08/21 04:43:55;;;;;;;64.30;13.67;;;;;;;-145.18;100.00;60484.78;5076796;28;20570;-70
2021/08/21 04:46:20;;;;;;;74.23;14.67;;;;;;;-145.18;100.00;60484.78;5077029;28;20024;-70
2021/08/21 04:48:46;;;;;;;68.13;14.07;;;;;;;-145.18;100.00;60484.78;5070398;28;20111;-71
2021/08/21 04:51:12;;;;;;;64.93;14.03;;;;;;;-145.18;100.00;60484.78;5075413;28;20024;-70
2021/08/21 04:53:37;;;;;;;75.13;15.27;;;;;;;-145.18;100.00;60484.78;5075733;28;20200;-71
2021/08/21 04:56:05;;;;;;;77.10;16.47;;;;;;;-145.18;100.00;60484.78;5067763;28;20154;-71
2021/08/21 04:58:30;;;;;;;70.87;15.77;;;;;;;-145.18;100.00;60484.78;5076408;28;20189;-71
2021/08/21 05:00:56;;;;;;;79.90;15.40;;;;;;;-145.18;100.00;60484.78;5077256;28;20031;-71
2021/08/21 05:03:21;;;;;;;70.20;15.63;;;;;;;-145.18;100.00;60484.78;5077387;28;20173;-71
2021/08/21 05:05:47;;;;;;;81.60;17.03;;;;;;;-145.18;100.00;60484.78;5075030;28;20273;-71
2021/08/21 05:08:12;;;;;;;66.20;15.87;;;;;;;-145.18;100.00;60484.78;5075729;28;20117;-71
2021/08/21 05:10:38;;;;;;;68.40;15.20;;;;;;;-145.18;100.00;60484.78;5070161;28;20422;-70
2021/08/21 05:13:03;;;;;;;56.43;15.60;;;;;;;-145.18;100.00;60484.78;5077737;28;20074;-71
2021/08/21 05:15:33;;;;;;;55.20;15.17;;;;;;;-145.18;100.00;60484.78;5073284;28;20080;-70
2021/08/21 05:17:58;;;;;;;57.73;14.97;;;;;;;-145.18;100.00;60484.78;5077827;28;20555;-70
2021/08/21 05:20:41;;;;;;;57.00;14.90;;;;;;;-145.18;100.00;60484.78;5077202;28;20115;-70
2021/08/21 05:23:08;;;;;;;60.45;15.68;;;;;;;-145.18;100.00;60484.78;5074256;28;20050;-70
2021/08/21 05:25:42;;;;;;;56.47;16.17;;;;;;;-145.18;100.00;60484.78;5080401;28;20039;-71
2021/08/21 05:28:09;;;;;;;49.33;13.90;;;;;;;-145.18;100.00;60484.78;5080377;28;20169;-71
2021/08/21 05:30:38;;;;;;;46.43;14.37;;;;;;;-145.18;100.00;60484.78;5081995;28;20089;-71
2021/08/21 05:33:06;;;;;;;55.60;14.43;;;;;;;-145.18;100.00;60484.78;5080932;28;20043;-71
2021/08/21 05:35:31;;;;;;;39.97;13.90;;;;;;;-145.18;100.00;60484.78;5079381;28;20390;-71
2021/08/21 05:37:57;;;;;;;43.00;13.90;;;;;;;-145.18;100.00;60484.78;5075502;28;20176;-71
2021/08/21 05:40:22;;;;;;;36.13;13.50;;;;;;;-145.18;100.00;60484.78;5080331;28;20028;-70
2021/08/21 05:42:48;;;;;;;41.43;13.97;;;;;;;-145.18;100.00;60484.78;5077960;28;20024;-70
2021/08/21 05:45:13;;;;;;;41.80;14.13;;;;;;;-145.18;100.00;60484.78;5081448;28;20092;-70
2021/08/21 05:47:39;;;;;;;41.27;13.40;;;;;;;-145.18;100.00;60484.78;5080269;28;20024;-70
2021/08/21 05:50:05;;;;;;;35.27;13.83;;;;;;;-145.18;100.00;60484.78;5071486;28;20181;-70
2021/08/21 05:52:31;;;;;;;37.87;13.30;;;;;;;-145.18;100.00;60484.78;5077804;28;20062;-70
2021/08/21 05:54:56;;;;;;;38.10;13.50;;;;;;;-145.18;100.00;60484.78;5079342;28;20020;-70
2021/08/21 05:57:22;;;;;;;39.33;13.27;;;;;;;-145.18;100.00;60484.78;5079836;28;20032;-70
2021/08/21 05:59:47;;;;;;;43.57;13.90;;;;;;;-145.18;100.00;60484.78;5073885;28;20294;-70
2021/08/21 06:02:13;;;;;;;34.23;11.63;;;;;;;-145.18;100.00;60484.78;5079069;28;20517;-70
2021/08/21 06:04:38;;;;;;;39.67;13.47;;;;;;;-145.18;100.00;60484.78;5074440;28;20058;-70
2021/08/21 06:07:05;;;;;;;34.23;13.27;;;;;;;-145.18;100.00;60484.78;5076708;28;20111;-70
2021/08/21 06:09:30;;;;;;;39.87;12.77;;;;;;;-145.18;100.00;60484.78;5074315;28;20052;-72
2021/08/21 06:11:55;;;;;;;39.67;13.17;;;;;;;-145.18;100.00;60484.78;5077030;28;20048;-72
2021/08/21 06:14:21;;;;;;;35.93;12.37;;;;;;;-145.18;100.00;60484.78;5079372;28;20020;-70
2021/08/21 06:16:47;;;;;;;32.97;12.83;;;;;;;-145.18;100.00;60484.78;5080265;28;20031;-70
2021/08/21 06:19:12;;;;;;;38.43;14.03;;;;;;;-145.18;100.00;60484.78;5080976;28;20441;-70
2021/08/21 06:21:38;;;;;;;39.17;13.23;;;;;;;-145.18;100.00;60484.78;5075611;28;20040;-70
2021/08/21 06:24:04;;;;;;;33.47;13.57;;;;;;;-145.18;100.00;60484.78;5073560;28;20034;-70
2021/08/21 06:26:30;;;;;;;30.87;13.63;;;;;;;-145.18;100.00;60484.78;5079127;28;20181;-72
2021/08/21 06:28:55;;;;;;;33.43;13.57;;;;;;;-145.18;100.00;60484.78;5079000;28;20377;-72
2021/08/21 06:31:21;;;;;;;36.17;13.93;;;;;;;-145.18;100.00;60484.78;5075888;28;20081;-72
2021/08/21 06:33:46;;;;;;;34.80;13.23;;;;;;;-145.18;100.00;60484.78;5076714;28;20244;-72
2021/08/21 06:36:12;;;;;;;41.30;14.77;;;;;;;-145.18;100.00;60484.78;5077878;28;20050;-72
2021/08/21 06:38:37;;;;;;;40.57;14.17;;;;;;;-145.18;100.00;60484.78;5080000;28;20423;-72
2021/08/21 06:41:03;;;;;;;39.43;15.27;;;;;;;-145.18;100.00;60484.78;5077985;28;20464;-72
2021/08/21 06:43:28;;;;;;;38.93;14.30;;;;;;;-145.18;100.00;60484.78;5075123;28;20051;-72
2021/08/21 06:45:54;;;;;;;43.23;14.40;;;;;;;-145.18;100.00;60484.78;5079438;28;20408;-72
2021/08/21 06:48:19;;;;;;;40.00;15.57;;;;;;;-145.18;100.00;60484.78;5077950;28;20580;-72
2021/08/21 06:50:45;;;;;;;41.33;14.83;;;;;;;-145.18;100.00;60484.78;5066885;28;20031;-73
2021/08/21 06:53:10;;;;;;;38.37;14.80;;;;;;;-145.18;100.00;60484.78;5079776;28;20373;-73
2021/08/21 06:55:36;;;;;;;38.43;15.13;;;;;;;-145.18;100.00;60484.78;5072626;28;20036;-73
2021/08/21 06:58:01;;;;;;;37.80;15.43;;;;;;;-145.18;100.00;60484.78;5076973;28;20058;-73
2021/08/21 07:00:27;;;;;;;38.43;15.13;;;;;;;-145.18;100.00;60484.78;5079811;28;20465;-73
2021/08/21 07:02:52;;;;;;;39.17;14.93;;;;;;;-145.18;100.00;60484.78;5079752;28;20085;-72
2021/08/21 07:05:18;;;;;;;37.37;15.53;;;;;;;-145.18;100.00;60484.78;5069743;28;20412;-73
2021/08/21 07:07:44;;;;;;;41.23;16.70;;;;;;;-145.18;100.00;60484.78;5074565;28;20043;-73
2021/08/21 07:10:09;;;;;;;34.60;14.60;;;;;;;-145.18;100.00;60484.78;5074207;28;20484;-73
2021/08/21 07:12:35;;;;;;;39.10;16.73;;;;;;;-145.18;100.00;60484.78;5080223;28;20271;-73
2021/08/21 07:15:01;;;;;;;33.33;15.13;;;;;;;-145.18;100.00;60484.78;5071736;28;20039;-72
2021/08/21 07:17:26;;;;;;;36.70;15.57;;;;;;;-145.18;100.00;60484.78;5075629;28;20476;-73
2021/08/21 07:19:52;;;;;;;35.83;15.10;;;;;;;-145.18;100.00;60484.78;5078285;28;20446;-73
2021/08/21 07:22:17;;;;;;;36.07;15.23;;;;;;;-145.18;100.00;60484.78;5077698;28;20028;-73
2021/08/21 07:24:43;;;;;;;34.47;14.60;;;;;;;-145.18;100.00;60484.78;5075383;28;20107;-73
2021/08/21 07:27:09;;;;;;;35.07;15.40;;;;;;;-145.18;100.00;60484.78;5079800;28;20055;-72
2021/08/21 07:29:34;;;;;;;34.30;15.57;;;;;;;-145.18;100.00;60484.78;5076141;28;20070;-72
2021/08/21 07:32:00;;;;;;;35.50;15.83;;;;;;;-145.18;100.00;60484.78;5079926;28;20056;-73
2021/08/21 07:34:25;;;;;;;37.87;16.17;;;;;;;-145.18;100.00;60484.78;5078637;28;20547;-73
2021/08/21 07:36:51;;;;;;;37.20;16.00;;;;;;;-145.18;100.00;60484.78;5077572;28;20031;-72
2021/08/21 07:39:17;;;;;;;43.63;15.73;;;;;;;-145.18;100.00;60484.78;5073615;28;20032;-72
2021/08/21 07:41:42;;;;;;;37.93;16.70;;;;;;;-145.18;100.00;60484.78;5076778;28;20060;-72
2021/08/21 07:44:08;;;;;;;38.70;16.13;;;;;;;-145.18;100.00;60484.78;5071123;28;20028;-72
2021/08/21 07:46:33;;;;;;;33.27;15.93;;;;;;;-145.18;100.00;60484.78;5065300;28;20060;-72
2021/08/21 07:48:59;;;;;;;37.77;15.60;;;;;;;-145.18;100.00;60484.78;5074267;28;20031;-72
2021/08/21 07:51:24;;;;;;;37.63;15.90;;;;;;;-145.18;100.00;60484.78;5075137;28;20122;-73
2021/08/21 07:53:50;;;;;;;36.53;15.77;;;;;;;-145.18;100.00;60484.78;5075294;28;20046;-73
2021/08/21 07:56:15;;;;;;;33.17;15.43;;;;;;;-145.18;100.00;60484.78;5077315;28;20128;-73
2021/08/21 07:58:41;;;;;;;34.80;15.35;;;;;;;-145.18;100.00;60484.78;5076933;28;20135;-73
2021/08/21 08:01:07;;;;;;;35.30;15.88;;;;;;;-145.18;100.00;60484.78;5077914;28;20131;-73
2021/08/21 08:03:33;;;;;;;30.67;14.57;;;;;;;-145.18;100.00;60484.78;5077540;28;20118;-72
2021/08/21 08:05:58;;;;;;;31.25;15.93;;;;;;;-145.18;100.00;60484.78;5073365;28;20123;-72
2021/08/21 08:08:24;;;;;;;30.27;15.30;;;;;;;-145.18;100.00;60484.78;5077790;28;20044;-72
2021/08/21 08:10:53;;;;;;;32.17;14.65;;;;;;;-145.18;100.00;60484.78;5076432;28;20035;-72
2021/08/21 08:13:18;;;;;;;30.90;14.80;;;;;;;-145.18;100.00;60484.78;5074768;28;20243;-72
2021/08/21 08:15:44;;;;;;;33.17;15.70;;;;;;;-145.18;100.00;60484.78;5070674;28;20050;-73
2021/08/21 08:18:10;;;;;;;30.58;15.43;;;;;;;-145.18;100.00;60484.78;5077544;28;20020;-73
2021/08/21 08:20:36;;;;;;;31.00;15.77;;;;;;;-145.18;100.00;60484.78;5077020;28;20172;-73
2021/08/21 08:23:02;;;;;;;29.50;14.82;;;;;;;-145.18;100.00;60484.78;5072919;28;20020;-72
2021/08/21 08:25:28;;;;;;;30.92;15.73;;;;;;;-145.18;100.00;60484.78;5074086;28;20051;-72
2021/08/21 08:27:54;;;;;;;33.70;15.77;;;;;;;-145.18;100.00;60484.78;5078035;28;20103;-72
2021/08/21 08:30:19;;;;;;;33.53;15.98;;;;;;;-145.18;100.00;60484.78;5074110;28;20093;-72
2021/08/21 08:32:45;;;;;;;35.83;16.15;;;;;;;-145.18;100.00;60484.78;5077714;28;20081;-72
2021/08/21 08:35:11;;;;;;;32.25;15.70;;;;;;;-145.18;100.00;60484.78;5076164;28;20036;-72
2021/08/21 08:37:37;;;;;;;35.65;16.40;;;;;;;-145.18;100.00;60484.78;5078528;28;20036;-72
2021/08/21 08:40:04;;;;;;;37.30;16.65;;;;;;;-145.18;100.00;60484.78;5075358;28;20213;-73
2021/08/21 08:42:31;;;;;;;31.70;15.02;;;;;;;-145.18;100.00;60484.78;5073216;28;20416;-73
2021/08/21 08:44:56;;;;;;;30.75;14.57;;;;;;;-145.18;100.00;60484.78;5066467;28;20040;-73
2021/08/21 08:47:22;;;;;;;33.13;15.18;;;;;;;-145.18;100.00;60484.78;5076819;28;20032;-73
2021/08/21 08:49:49;;;;;;;30.92;15.35;;;;;;;-145.18;100.00;60484.78;5068698;28;20535;-73
2021/08/21 08:52:16;;;;;;;31.50;14.50;;;;;;;-145.18;100.00;60484.78;5074932;28;20036;-73
2021/08/21 08:54:42;;;;;;;29.23;14.60;;;;;;;-145.18;100.00;60484.78;5076240;28;20035;-73
2021/08/21 08:57:08;;;;;;;29.88;14.05;;;;;;;-145.18;100.00;60484.78;5078521;28;20153;-73
2021/08/21 08:59:34;;;;;;;27.23;13.15;;;;;;;-145.18;100.00;60484.78;5077731;28;20032;-73
2021/08/21 09:01:59;;;;;;;27.50;13.48;;;;;;;-145.18;100.00;60484.78;5079818;28;20036;-73
2021/08/21 09:04:26;;;;;;;25.77;13.20;;;;;;;-145.18;100.00;60484.78;5081147;28;20408;-73
2021/08/21 09:06:53;;;;;;;27.55;13.45;;;;;;;-145.18;100.00;60484.78;5081050;28;20267;-72
2021/08/21 09:09:21;;;;;;;30.15;14.38;;;;;;;-145.18;100.00;60484.78;5078745;28;20086;-72
2021/08/21 09:11:52;;;;;;;25.58;13.35;;;;;;;-145.18;100.00;60484.78;5079755;28;20074;-72
2021/08/21 09:14:29;;;;;;;28.77;13.70;;;;;;;-145.18;100.00;60484.78;5080376;28;20036;-72
2021/08/21 09:17:17;;;;;;;30.33;13.40;;;;;;;-145.18;100.00;60484.78;5081646;28;20078;-72
2021/08/21 09:19:43;;;;;;;30.25;13.73;;;;;;;-145.18;100.00;60484.78;5074982;28;20469;-72
2021/08/21 09:22:12;;;;;;;27.38;13.68;;;;;;;-145.18;100.00;60484.78;5078753;28;20028;-72
2021/08/21 09:24:39;;;;;;;28.55;12.75;;;;;;;-145.18;100.00;60484.78;5079455;28;20024;-73
2021/08/21 09:27:27;;;;;;;26.70;13.32;;;;;;;-145.18;100.00;60484.78;5078357;28;20097;-72
2021/08/21 09:30:16;;;;;;;27.35;12.80;;;;;;;-145.18;100.00;60484.78;5072862;28;20024;-72
2021/08/21 09:32:41;;;;;;;27.35;13.15;;;;;;;-145.18;100.00;60484.78;5077428;28;20024;-72
2021/08/21 09:35:13;;;;;;;30.95;13.48;;;;;;;-145.18;100.00;60484.78;5079889;28;20035;-72
2021/08/21 09:37:52;;;;;;;26.95;12.32;;;;;;;-145.18;100.00;60484.78;5080596;28;20035;-72
2021/08/21 09:40:30;;;;;;;24.98;12.30;;;;;;;-145.18;100.00;60484.78;5078194;28;20039;-72
2021/08/21 09:42:56;;;;;;;26.48;12.52;;;;;;;-145.18;100.00;60484.78;5080170;28;20082;-72
2021/08/21 09:45:22;;;;;;;24.58;11.82;;;;;;;-145.18;100.00;60484.78;5078684;28;20024;-72
2021/08/21 09:47:48;;;;;;;24.13;12.52;;;;;;;-145.18;100.00;60484.78;5079282;28;20024;-73
2021/08/21 09:50:19;;;;;;;24.05;12.20;;;;;;;-145.18;100.00;60484.78;5071421;28;20039;-72
2021/08/21 09:52:47;;;;;;;24.50;12.23;;;;;;;-145.18;100.00;60484.78;5079072;28;20263;-72
2021/08/21 09:55:16;;;;;;;23.15;12.32;;;;;;;-145.18;100.00;60484.78;5071932;28;20032;-72
2021/08/21 09:57:44;;;;;;;23.75;11.85;;;;;;;-145.18;100.00;60484.78;5073764;28;20369;-72
2021/08/21 10:00:11;;;;;;;23.58;12.05;;;;;;;-145.18;100.00;60484.78;5074522;28;20024;-72
2021/08/21 10:02:37;;;;;;;24.30;12.07;;;;;;;-145.18;100.00;60484.78;5079534;28;20051;-72
2021/08/21 10:05:03;;;;;;;20.77;11.05;;;;;;;-145.18;100.00;60484.78;5071036;28;20028;-72
2021/08/21 10:07:35;;;;;;;23.63;11.75;;;;;;;-145.18;100.00;60484.78;5073078;28;20299;-72
2021/08/21 10:10:03;;;;;;;21.20;11.68;;;;;;;-145.18;100.00;60484.78;5079637;28;20032;-72
2021/08/21 10:12:29;;;;;;;24.33;11.68;;;;;;;-145.18;100.00;60484.78;5080139;28;20192;-72
2021/08/21 10:14:55;;;;;;;22.17;11.13;;;;;;;-145.18;100.00;60484.78;5077591;28;20168;-72
2021/08/21 10:17:21;;;;;;;23.83;12.15;;;;;;;-145.18;100.00;60484.78;5079635;28;20036;-72
2021/08/21 10:19:48;;;;;;;23.23;11.65;;;;;;;-145.18;100.00;60484.78;5074739;28;20032;-72
2021/08/21 10:22:14;;;;;;;23.27;11.13;;;;;;;-145.18;100.00;60484.78;5080494;28;20073;-72
2021/08/21 10:24:42;;;;;;;21.50;12.05;;;;;;;-145.18;100.00;60484.78;5078557;28;20027;-72
2021/08/21 10:27:39;;;;;;;22.25;11.55;;;;;;;-145.18;100.00;60484.78;5077104;28;20059;-72
2021/08/21 10:30:14;;;;;;;19.58;10.57;;;;;;;-145.18;100.00;60484.78;5047402;28;20040;-72
2021/08/21 10:32:44;;;;;;;22.77;11.02;;;;;;;-145.18;100.00;60484.78;5077108;28;20058;-72
2021/08/21 10:35:12;;;;;;;23.35;11.85;;;;;;;-145.18;100.00;60484.78;5077290;28;20024;-72
2021/08/21 10:37:50;;;;;;;24.48;12.07;;;;;;;-145.18;100.00;60484.78;5070263;28;20024;-72
2021/08/21 10:40:35;;;;;;;19.92;10.90;;;;;;;-145.18;100.00;60484.78;5078584;28;21945;-73
2021/08/21 10:43:03;;;;;;;20.30;10.32;;;;;;;-145.18;100.00;60484.78;5077675;28;20020;-73
2021/08/21 10:45:43;;;;;;;21.52;10.70;;;;;;;-145.18;100.00;60484.78;5074450;28;20031;-73
2021/08/21 10:48:57;;;;;;;19.92;11.30;;;;;;;-145.18;100.00;60484.78;5078536;28;20515;-73
2021/08/21 10:51:37;;;;;;;18.33;9.48;;;;;;;-145.18;100.00;60484.78;5068864;28;20393;-72
2021/08/21 10:54:45;;;;;;;18.20;8.38;;;;;;;-145.18;100.00;60484.78;5075645;28;20097;-72